sensor_id;sensor_type;location;lat;lon;timestamp;P1;durP1;ratioP1;P2;durP2;ratioP2
63690;SDS011;49837;57.280;27.070;2022-12-07T00:00:11;5.1;;;3.2;;
63690;SDS011;49837;57.280;27.070;2022-12-07T00:01:12;5.5;;;3.3;;
63690;SDS011;49837;57.280;27.070;2022-12-07T00:02:11;4.5;;;3.2;;
63690;SDS011;49837;57.280;27.070;2022-12-07T00:03:12;5.2;;;3.6;;
63690;SDS011;49837;57.280;27.070;2022-12-07T00:04:13;4.1;;;3.2;;
63690;SDS011;49837;57.280;27.070;2022-12-07T00:05:13;4.5;;;3.4;;
63690;SDS011;49837;57.280;27.070;2022-12-07T00:06:14;7.2;;;3.7;;
63690;SDS011;49837;57.280;27.070;2022-12-07T00:07:13;5.4;;;3.2;;
63690;SDS011;49837;57.280;27.070;2022-12-07T00:08:14;5.0;;;3.3;;
63690;SDS011;49837;57.280;27.070;2022-12-07T00:09:15;5.6;;;3.3;;
63690;SDS011;49837;57.280;27.070;2022-12-07T00:10:15;4.9;;;3.4;;
63690;SDS011;49837;57.280;27.070;2022-12-07T00:11:16;5.1;;;3.2;;
63690;SDS011;49837;57.280;27.070;2022-12-07T00:12:15;4.4;;;3.3;;
63690;SDS011;49837;57.280;27.070;2022-12-07T00:13:16;4.6;;;3.0;;
63690;SDS011;49837;57.280;27.070;2022-12-07T00:14:16;4.8;;;3.0;;
63690;SDS011;49837;57.280;27.070;2022-12-07T00:15:17;4.2;;;3.1;;
63690;SDS011;49837;57.280;27.070;2022-12-07T00:16:17;4.7;;;3.4;;
63690;SDS011;49837;57.280;27.070;2022-12-07T00:17:17;6.5;;;3.9;;
63690;SDS011;49837;57.280;27.070;2022-12-07T00:18:18;4.9;;;3.3;;
63690;SDS011;49837;57.280;27.070;2022-12-07T00:19:18;4.4;;;3.1;;
63690;SDS011;49837;57.280;27.070;2022-12-07T00:20:19;4.9;;;3.5;;
63690;SDS011;49837;57.280;27.070;2022-12-07T00:21:23;4.9;;;3.5;;
63690;SDS011;49837;57.280;27.070;2022-12-07T00:22:21;6.9;;;4.4;;
63690;SDS011;49837;57.280;27.070;2022-12-07T00:23:21;9.2;;;6.3;;
63690;SDS011;49837;57.280;27.070;2022-12-07T00:24:21;5.6;;;3.5;;
63690;SDS011;49837;57.280;27.070;2022-12-07T00:25:22;4.8;;;3.5;;
63690;SDS011;49837;57.280;27.070;2022-12-07T00:26:26;4.6;;;3.5;;
63690;SDS011;49837;57.280;27.070;2022-12-07T00:27:25;5.1;;;3.5;;
63690;SDS011;49837;57.280;27.070;2022-12-07T00:28:25;5.5;;;3.2;;
63690;SDS011;49837;57.280;27.070;2022-12-07T00:29:26;4.8;;;3.4;;
63690;SDS011;49837;57.280;27.070;2022-12-07T00:30:26;5.0;;;3.4;;
63690;SDS011;49837;57.280;27.070;2022-12-07T00:31:28;5.3;;;3.3;;
63690;SDS011;49837;57.280;27.070;2022-12-07T00:32:27;5.3;;;3.5;;
63690;SDS011;49837;57.280;27.070;2022-12-07T00:33:28;5.0;;;3.2;;
63690;SDS011;49837;57.280;27.070;2022-12-07T00:34:28;4.8;;;3.5;;
63690;SDS011;49837;57.280;27.070;2022-12-07T00:35:28;4.9;;;3.4;;
63690;SDS011;49837;57.280;27.070;2022-12-07T00:36:29;4.6;;;3.5;;
63690;SDS011;49837;57.280;27.070;2022-12-07T00:37:29;5.4;;;3.5;;
63690;SDS011;49837;57.280;27.070;2022-12-07T00:38:30;4.6;;;3.4;;
63690;SDS011;49837;57.280;27.070;2022-12-07T00:39:30;4.8;;;3.3;;
63690;SDS011;49837;57.280;27.070;2022-12-07T00:40:31;6.0;;;3.5;;
63690;SDS011;49837;57.280;27.070;2022-12-07T00:41:32;5.7;;;3.8;;
63690;SDS011;49837;57.280;27.070;2022-12-07T00:42:32;4.8;;;3.5;;
63690;SDS011;49837;57.280;27.070;2022-12-07T00:43:32;5.7;;;3.4;;
63690;SDS011;49837;57.280;27.070;2022-12-07T00:44:33;5.9;;;3.2;;
63690;SDS011;49837;57.280;27.070;2022-12-07T00:45:34;5.1;;;3.4;;
63690;SDS011;49837;57.280;27.070;2022-12-07T00:46:34;4.6;;;3.4;;
63690;SDS011;49837;57.280;27.070;2022-12-07T00:47:35;5.2;;;3.3;;
63690;SDS011;49837;57.280;27.070;2022-12-07T00:48:35;5.4;;;3.5;;
63690;SDS011;49837;57.280;27.070;2022-12-07T00:49:36;6.1;;;3.6;;
63690;SDS011;49837;57.280;27.070;2022-12-07T00:50:37;6.0;;;3.8;;
63690;SDS011;49837;57.280;27.070;2022-12-07T00:51:37;5.3;;;3.3;;
63690;SDS011;49837;57.280;27.070;2022-12-07T00:52:38;5.4;;;3.5;;
63690;SDS011;49837;57.280;27.070;2022-12-07T00:53:38;5.1;;;3.3;;
63690;SDS011;49837;57.280;27.070;2022-12-07T00:54:39;5.0;;;3.4;;
63690;SDS011;49837;57.280;27.070;2022-12-07T00:55:39;4.5;;;3.1;;
63690;SDS011;49837;57.280;27.070;2022-12-07T00:56:40;5.6;;;3.7;;
63690;SDS011;49837;57.280;27.070;2022-12-07T00:57:40;6.7;;;3.7;;
63690;SDS011;49837;57.280;27.070;2022-12-07T00:58:41;4.7;;;3.6;;
63690;SDS011;49837;57.280;27.070;2022-12-07T00:59:41;5.4;;;3.7;;
63690;SDS011;49837;57.280;27.070;2022-12-07T01:00:42;5.7;;;3.4;;
63690;SDS011;49837;57.280;27.070;2022-12-07T01:01:42;4.8;;;3.4;;
63690;SDS011;49837;57.280;27.070;2022-12-07T01:02:42;4.9;;;3.4;;
63690;SDS011;49837;57.280;27.070;2022-12-07T01:03:42;6.0;;;3.8;;
63690;SDS011;49837;57.280;27.070;2022-12-07T01:04:43;5.2;;;3.5;;
63690;SDS011;49837;57.280;27.070;2022-12-07T01:05:55;5.6;;;3.4;;
63690;SDS011;49837;57.280;27.070;2022-12-07T01:06:47;6.1;;;3.8;;
63690;SDS011;49837;57.280;27.070;2022-12-07T01:07:48;6.5;;;3.7;;
63690;SDS011;49837;57.280;27.070;2022-12-07T01:08:48;5.1;;;3.4;;
63690;SDS011;49837;57.280;27.070;2022-12-07T01:09:49;5.0;;;3.6;;
63690;SDS011;49837;57.280;27.070;2022-12-07T01:10:49;5.9;;;3.5;;
63690;SDS011;49837;57.280;27.070;2022-12-07T01:11:54;7.0;;;3.9;;
63690;SDS011;49837;57.280;27.070;2022-12-07T01:12:54;5.4;;;3.3;;
63690;SDS011;49837;57.280;27.070;2022-12-07T01:13:55;5.3;;;3.6;;
63690;SDS011;49837;57.280;27.070;2022-12-07T01:14:56;5.1;;;3.3;;
63690;SDS011;49837;57.280;27.070;2022-12-07T01:15:59;5.2;;;3.7;;
63690;SDS011;49837;57.280;27.070;2022-12-07T01:16:58;5.4;;;3.7;;
63690;SDS011;49837;57.280;27.070;2022-12-07T01:17:59;6.5;;;3.8;;
63690;SDS011;49837;57.280;27.070;2022-12-07T01:18:59;5.0;;;3.4;;
63690;SDS011;49837;57.280;27.070;2022-12-07T01:20:00;5.2;;;3.6;;
63690;SDS011;49837;57.280;27.070;2022-12-07T01:21:01;5.2;;;3.7;;
63690;SDS011;49837;57.280;27.070;2022-12-07T01:22:03;5.5;;;3.6;;
63690;SDS011;49837;57.280;27.070;2022-12-07T01:23:03;5.6;;;3.6;;
63690;SDS011;49837;57.280;27.070;2022-12-07T01:24:04;5.5;;;3.6;;
63690;SDS011;49837;57.280;27.070;2022-12-07T01:25:04;5.5;;;3.6;;
63690;SDS011;49837;57.280;27.070;2022-12-07T01:26:06;4.9;;;3.4;;
63690;SDS011;49837;57.280;27.070;2022-12-07T01:27:05;5.9;;;3.6;;
63690;SDS011;49837;57.280;27.070;2022-12-07T01:28:05;5.4;;;3.6;;
63690;SDS011;49837;57.280;27.070;2022-12-07T01:29:06;5.5;;;3.3;;
63690;SDS011;49837;57.280;27.070;2022-12-07T01:30:06;5.7;;;3.4;;
63690;SDS011;49837;57.280;27.070;2022-12-07T01:31:08;5.2;;;3.6;;
63690;SDS011;49837;57.280;27.070;2022-12-07T01:32:10;5.4;;;3.4;;
63690;SDS011;49837;57.280;27.070;2022-12-07T01:33:10;5.1;;;3.5;;
63690;SDS011;49837;57.280;27.070;2022-12-07T01:34:11;5.9;;;3.6;;
63690;SDS011;49837;57.280;27.070;2022-12-07T01:35:11;5.2;;;3.5;;
63690;SDS011;49837;57.280;27.070;2022-12-07T01:37:15;5.4;;;3.7;;
63690;SDS011;49837;57.280;27.070;2022-12-07T01:38:16;5.5;;;3.7;;
63690;SDS011;49837;57.280;27.070;2022-12-07T01:39:16;5.8;;;4.1;;
63690;SDS011;49837;57.280;27.070;2022-12-07T01:40:16;5.2;;;3.6;;
63690;SDS011;49837;57.280;27.070;2022-12-07T01:41:17;6.0;;;4.0;;
63690;SDS011;49837;57.280;27.070;2022-12-07T01:42:18;4.7;;;3.4;;
63690;SDS011;49837;57.280;27.070;2022-12-07T01:43:18;5.4;;;3.5;;
63690;SDS011;49837;57.280;27.070;2022-12-07T01:44:25;4.7;;;3.3;;
63690;SDS011;49837;57.280;27.070;2022-12-07T01:45:36;6.0;;;3.7;;
63690;SDS011;49837;57.280;27.070;2022-12-07T01:46:23;5.6;;;3.9;;
63690;SDS011;49837;57.280;27.070;2022-12-07T01:47:24;5.4;;;3.7;;
63690;SDS011;49837;57.280;27.070;2022-12-07T01:48:32;6.6;;;3.7;;
63690;SDS011;49837;57.280;27.070;2022-12-07T01:49:31;5.5;;;3.5;;
63690;SDS011;49837;57.280;27.070;2022-12-07T01:50:33;5.7;;;3.4;;
63690;SDS011;49837;57.280;27.070;2022-12-07T01:51:33;6.0;;;3.8;;
63690;SDS011;49837;57.280;27.070;2022-12-07T01:52:34;5.8;;;3.6;;
63690;SDS011;49837;57.280;27.070;2022-12-07T01:53:35;5.0;;;3.6;;
63690;SDS011;49837;57.280;27.070;2022-12-07T01:54:35;5.4;;;3.7;;
63690;SDS011;49837;57.280;27.070;2022-12-07T01:55:36;5.2;;;3.5;;
63690;SDS011;49837;57.280;27.070;2022-12-07T01:56:37;5.7;;;4.4;;
63690;SDS011;49837;57.280;27.070;2022-12-07T01:57:41;6.4;;;4.3;;
63690;SDS011;49837;57.280;27.070;2022-12-07T01:58:39;5.9;;;4.1;;
63690;SDS011;49837;57.280;27.070;2022-12-07T01:59:39;6.3;;;3.7;;
63690;SDS011;49837;57.280;27.070;2022-12-07T02:00:40;5.5;;;3.5;;
63690;SDS011;49837;57.280;27.070;2022-12-07T02:01:40;6.6;;;4.0;;
63690;SDS011;49837;57.280;27.070;2022-12-07T02:02:46;5.2;;;3.7;;
63690;SDS011;49837;57.280;27.070;2022-12-07T02:03:43;5.8;;;3.9;;
63690;SDS011;49837;57.280;27.070;2022-12-07T02:04:42;5.3;;;3.7;;
63690;SDS011;49837;57.280;27.070;2022-12-07T02:05:43;5.3;;;3.5;;
63690;SDS011;49837;57.280;27.070;2022-12-07T02:06:43;6.3;;;4.3;;
63690;SDS011;49837;57.280;27.070;2022-12-07T02:07:43;6.9;;;4.0;;
63690;SDS011;49837;57.280;27.070;2022-12-07T02:08:44;5.5;;;3.6;;
63690;SDS011;49837;57.280;27.070;2022-12-07T02:09:44;6.9;;;3.8;;
63690;SDS011;49837;57.280;27.070;2022-12-07T02:10:45;5.9;;;4.0;;
63690;SDS011;49837;57.280;27.070;2022-12-07T02:11:45;5.0;;;3.5;;
63690;SDS011;49837;57.280;27.070;2022-12-07T02:12:47;5.8;;;3.8;;
63690;SDS011;49837;57.280;27.070;2022-12-07T02:13:47;5.7;;;4.1;;
63690;SDS011;49837;57.280;27.070;2022-12-07T02:14:47;5.8;;;3.8;;
63690;SDS011;49837;57.280;27.070;2022-12-07T02:15:52;7.4;;;4.2;;
63690;SDS011;49837;57.280;27.070;2022-12-07T02:18:16;5.6;;;4.0;;
63690;SDS011;49837;57.280;27.070;2022-12-07T02:20:18;5.4;;;3.7;;
63690;SDS011;49837;57.280;27.070;2022-12-07T02:21:11;5.7;;;3.9;;
63690;SDS011;49837;57.280;27.070;2022-12-07T02:23:29;6.9;;;4.4;;
63690;SDS011;49837;57.280;27.070;2022-12-07T02:26:38;6.8;;;4.0;;
63690;SDS011;49837;57.280;27.070;2022-12-07T02:27:28;5.6;;;3.8;;
63690;SDS011;49837;57.280;27.070;2022-12-07T02:28:37;5.8;;;3.9;;
63690;SDS011;49837;57.280;27.070;2022-12-07T02:30:28;6.7;;;4.0;;
63690;SDS011;49837;57.280;27.070;2022-12-07T02:31:30;5.7;;;3.8;;
63690;SDS011;49837;57.280;27.070;2022-12-07T02:33:35;6.7;;;4.0;;
63690;SDS011;49837;57.280;27.070;2022-12-07T02:34:57;6.1;;;3.9;;
63690;SDS011;49837;57.280;27.070;2022-12-07T02:35:41;6.1;;;4.0;;
63690;SDS011;49837;57.280;27.070;2022-12-07T02:36:46;6.1;;;3.8;;
63690;SDS011;49837;57.280;27.070;2022-12-07T02:38:55;5.6;;;3.7;;
63690;SDS011;49837;57.280;27.070;2022-12-07T02:40:55;5.8;;;3.9;;
63690;SDS011;49837;57.280;27.070;2022-12-07T02:41:55;6.1;;;3.7;;
63690;SDS011;49837;57.280;27.070;2022-12-07T02:44:02;6.3;;;3.8;;
63690;SDS011;49837;57.280;27.070;2022-12-07T02:45:04;5.8;;;3.8;;
63690;SDS011;49837;57.280;27.070;2022-12-07T02:46:09;5.4;;;3.6;;
63690;SDS011;49837;57.280;27.070;2022-12-07T02:47:08;4.7;;;3.7;;
63690;SDS011;49837;57.280;27.070;2022-12-07T02:48:09;5.9;;;3.7;;
63690;SDS011;49837;57.280;27.070;2022-12-07T02:49:10;5.3;;;3.8;;
63690;SDS011;49837;57.280;27.070;2022-12-07T02:50:11;5.4;;;3.9;;
63690;SDS011;49837;57.280;27.070;2022-12-07T02:51:11;5.3;;;3.8;;
63690;SDS011;49837;57.280;27.070;2022-12-07T02:52:11;5.3;;;3.6;;
63690;SDS011;49837;57.280;27.070;2022-12-07T02:53:31;5.8;;;3.9;;
63690;SDS011;49837;57.280;27.070;2022-12-07T02:54:14;6.4;;;4.2;;
63690;SDS011;49837;57.280;27.070;2022-12-07T02:55:17;6.2;;;3.5;;
63690;SDS011;49837;57.280;27.070;2022-12-07T02:56:24;6.2;;;3.9;;
63690;SDS011;49837;57.280;27.070;2022-12-07T02:57:26;7.1;;;3.9;;
63690;SDS011;49837;57.280;27.070;2022-12-07T03:00:37;6.1;;;3.9;;
63690;SDS011;49837;57.280;27.070;2022-12-07T03:03:44;5.3;;;3.5;;
63690;SDS011;49837;57.280;27.070;2022-12-07T03:05:57;5.8;;;3.9;;
63690;SDS011;49837;57.280;27.070;2022-12-07T03:06:53;5.4;;;3.8;;
63690;SDS011;49837;57.280;27.070;2022-12-07T03:07:58;5.4;;;3.9;;
63690;SDS011;49837;57.280;27.070;2022-12-07T03:08:57;5.8;;;3.6;;
63690;SDS011;49837;57.280;27.070;2022-12-07T03:11:13;6.1;;;3.7;;
63690;SDS011;49837;57.280;27.070;2022-12-07T03:12:06;7.7;;;4.6;;
63690;SDS011;49837;57.280;27.070;2022-12-07T03:13:16;5.5;;;3.5;;
63690;SDS011;49837;57.280;27.070;2022-12-07T03:15:08;6.6;;;4.0;;
63690;SDS011;49837;57.280;27.070;2022-12-07T03:16:27;5.4;;;3.8;;
63690;SDS011;49837;57.280;27.070;2022-12-07T03:17:16;5.2;;;3.9;;
63690;SDS011;49837;57.280;27.070;2022-12-07T03:18:20;6.5;;;3.9;;
63690;SDS011;49837;57.280;27.070;2022-12-07T03:19:21;5.2;;;3.6;;
63690;SDS011;49837;57.280;27.070;2022-12-07T03:20:21;6.0;;;4.0;;
63690;SDS011;49837;57.280;27.070;2022-12-07T03:21:26;6.5;;;3.9;;
63690;SDS011;49837;57.280;27.070;2022-12-07T03:22:23;4.7;;;3.5;;
63690;SDS011;49837;57.280;27.070;2022-12-07T03:23:23;5.4;;;3.6;;
63690;SDS011;49837;57.280;27.070;2022-12-07T03:24:34;6.1;;;3.8;;
63690;SDS011;49837;57.280;27.070;2022-12-07T03:25:25;6.6;;;3.7;;
63690;SDS011;49837;57.280;27.070;2022-12-07T03:26:32;6.2;;;4.0;;
63690;SDS011;49837;57.280;27.070;2022-12-07T03:27:35;5.9;;;3.6;;
63690;SDS011;49837;57.280;27.070;2022-12-07T03:28:37;5.4;;;3.8;;
63690;SDS011;49837;57.280;27.070;2022-12-07T03:29:34;5.9;;;4.0;;
63690;SDS011;49837;57.280;27.070;2022-12-07T03:30:39;5.5;;;3.8;;
63690;SDS011;49837;57.280;27.070;2022-12-07T03:31:43;6.5;;;4.3;;
63690;SDS011;49837;57.280;27.070;2022-12-07T03:32:44;5.8;;;4.0;;
63690;SDS011;49837;57.280;27.070;2022-12-07T03:33:45;6.0;;;3.8;;
63690;SDS011;49837;57.280;27.070;2022-12-07T03:34:46;4.9;;;3.5;;
63690;SDS011;49837;57.280;27.070;2022-12-07T03:37:56;5.4;;;3.7;;
63690;SDS011;49837;57.280;27.070;2022-12-07T03:40:04;5.5;;;3.5;;
63690;SDS011;49837;57.280;27.070;2022-12-07T03:40:55;4.0;;;3.2;;
63690;SDS011;49837;57.280;27.070;2022-12-07T03:41:57;6.0;;;3.8;;
63690;SDS011;49837;57.280;27.070;2022-12-07T03:42:59;5.1;;;3.6;;
63690;SDS011;49837;57.280;27.070;2022-12-07T03:43:59;5.0;;;3.5;;
63690;SDS011;49837;57.280;27.070;2022-12-07T03:45:00;6.1;;;3.8;;
63690;SDS011;49837;57.280;27.070;2022-12-07T03:47:08;5.8;;;3.8;;
63690;SDS011;49837;57.280;27.070;2022-12-07T03:48:09;5.6;;;3.4;;
63690;SDS011;49837;57.280;27.070;2022-12-07T03:49:13;7.4;;;4.1;;
63690;SDS011;49837;57.280;27.070;2022-12-07T03:52:24;5.7;;;3.9;;
63690;SDS011;49837;57.280;27.070;2022-12-07T03:53:24;7.2;;;4.2;;
63690;SDS011;49837;57.280;27.070;2022-12-07T03:54:36;5.2;;;3.6;;
63690;SDS011;49837;57.280;27.070;2022-12-07T03:55:29;4.5;;;3.5;;
63690;SDS011;49837;57.280;27.070;2022-12-07T03:56:29;5.9;;;3.6;;
63690;SDS011;49837;57.280;27.070;2022-12-07T03:57:30;5.5;;;3.5;;
63690;SDS011;49837;57.280;27.070;2022-12-07T03:58:30;5.7;;;3.8;;
63690;SDS011;49837;57.280;27.070;2022-12-07T03:59:31;6.3;;;3.8;;
63690;SDS011;49837;57.280;27.070;2022-12-07T04:00:31;5.6;;;4.1;;
63690;SDS011;49837;57.280;27.070;2022-12-07T04:01:31;5.3;;;3.6;;
63690;SDS011;49837;57.280;27.070;2022-12-07T04:02:32;5.7;;;3.6;;
63690;SDS011;49837;57.280;27.070;2022-12-07T04:03:32;6.6;;;3.7;;
63690;SDS011;49837;57.280;27.070;2022-12-07T04:04:33;5.3;;;3.7;;
63690;SDS011;49837;57.280;27.070;2022-12-07T04:05:33;6.0;;;3.6;;
63690;SDS011;49837;57.280;27.070;2022-12-07T04:06:33;4.8;;;3.3;;
63690;SDS011;49837;57.280;27.070;2022-12-07T04:07:34;5.3;;;3.5;;
63690;SDS011;49837;57.280;27.070;2022-12-07T04:08:34;5.9;;;3.5;;
63690;SDS011;49837;57.280;27.070;2022-12-07T04:09:35;5.9;;;3.8;;
63690;SDS011;49837;57.280;27.070;2022-12-07T04:10:35;6.4;;;4.0;;
63690;SDS011;49837;57.280;27.070;2022-12-07T04:11:35;5.2;;;3.8;;
63690;SDS011;49837;57.280;27.070;2022-12-07T04:12:36;5.1;;;3.4;;
63690;SDS011;49837;57.280;27.070;2022-12-07T04:13:36;6.4;;;4.2;;
63690;SDS011;49837;57.280;27.070;2022-12-07T04:14:37;7.0;;;4.1;;
63690;SDS011;49837;57.280;27.070;2022-12-07T04:15:37;6.3;;;4.3;;
63690;SDS011;49837;57.280;27.070;2022-12-07T04:16:37;8.5;;;5.4;;
63690;SDS011;49837;57.280;27.070;2022-12-07T04:17:40;8.1;;;5.4;;
63690;SDS011;49837;57.280;27.070;2022-12-07T04:18:40;10.6;;;6.4;;
63690;SDS011;49837;57.280;27.070;2022-12-07T04:19:41;10.6;;;6.7;;
63690;SDS011;49837;57.280;27.070;2022-12-07T04:20:41;8.0;;;5.3;;
63690;SDS011;49837;57.280;27.070;2022-12-07T04:21:42;8.9;;;6.6;;
63690;SDS011;49837;57.280;27.070;2022-12-07T04:22:42;7.2;;;4.8;;
63690;SDS011;49837;57.280;27.070;2022-12-07T04:23:43;8.4;;;5.7;;
63690;SDS011;49837;57.280;27.070;2022-12-07T04:24:43;8.8;;;5.5;;
63690;SDS011;49837;57.280;27.070;2022-12-07T04:25:43;6.3;;;3.9;;
63690;SDS011;49837;57.280;27.070;2022-12-07T04:26:44;7.0;;;4.6;;
63690;SDS011;49837;57.280;27.070;2022-12-07T04:27:44;6.7;;;4.5;;
63690;SDS011;49837;57.280;27.070;2022-12-07T04:28:45;7.5;;;4.2;;
63690;SDS011;49837;57.280;27.070;2022-12-07T04:29:45;5.3;;;3.7;;
63690;SDS011;49837;57.280;27.070;2022-12-07T04:30:45;5.1;;;3.5;;
63690;SDS011;49837;57.280;27.070;2022-12-07T04:31:46;5.8;;;4.1;;
63690;SDS011;49837;57.280;27.070;2022-12-07T04:32:46;5.8;;;3.9;;
63690;SDS011;49837;57.280;27.070;2022-12-07T04:33:47;5.8;;;3.7;;
63690;SDS011;49837;57.280;27.070;2022-12-07T04:34:47;5.8;;;3.7;;
63690;SDS011;49837;57.280;27.070;2022-12-07T04:35:51;7.2;;;4.3;;
63690;SDS011;49837;57.280;27.070;2022-12-07T04:36:51;5.5;;;3.9;;
63690;SDS011;49837;57.280;27.070;2022-12-07T04:37:52;5.6;;;3.7;;
63690;SDS011;49837;57.280;27.070;2022-12-07T04:38:53;6.7;;;3.9;;
63690;SDS011;49837;57.280;27.070;2022-12-07T04:39:53;6.3;;;4.5;;
63690;SDS011;49837;57.280;27.070;2022-12-07T04:40:53;7.4;;;4.4;;
63690;SDS011;49837;57.280;27.070;2022-12-07T04:41:53;7.8;;;4.4;;
63690;SDS011;49837;57.280;27.070;2022-12-07T04:42:54;8.8;;;5.2;;
63690;SDS011;49837;57.280;27.070;2022-12-07T04:43:54;9.5;;;5.2;;
63690;SDS011;49837;57.280;27.070;2022-12-07T04:44:57;13.2;;;6.8;;
63690;SDS011;49837;57.280;27.070;2022-12-07T04:45:57;13.9;;;7.5;;
63690;SDS011;49837;57.280;27.070;2022-12-07T04:46:58;14.4;;;7.2;;
63690;SDS011;49837;57.280;27.070;2022-12-07T04:47:58;17.9;;;8.7;;
63690;SDS011;49837;57.280;27.070;2022-12-07T04:48:58;21.3;;;10.3;;
63690;SDS011;49837;57.280;27.070;2022-12-07T04:49:59;41.2;;;17.6;;
63690;SDS011;49837;57.280;27.070;2022-12-07T04:50:59;34.0;;;15.2;;
63690;SDS011;49837;57.280;27.070;2022-12-07T04:52:00;24.9;;;11.4;;
63690;SDS011;49837;57.280;27.070;2022-12-07T04:53:00;15.2;;;7.2;;
63690;SDS011;49837;57.280;27.070;2022-12-07T04:54:00;18.0;;;8.6;;
63690;SDS011;49837;57.280;27.070;2022-12-07T04:55:01;10.9;;;6.4;;
63690;SDS011;49837;57.280;27.070;2022-12-07T04:56:01;14.3;;;8.3;;
63690;SDS011;49837;57.280;27.070;2022-12-07T04:57:02;6.3;;;4.0;;
63690;SDS011;49837;57.280;27.070;2022-12-07T04:58:02;17.9;;;9.4;;
63690;SDS011;49837;57.280;27.070;2022-12-07T04:59:02;10.5;;;6.6;;
63690;SDS011;49837;57.280;27.070;2022-12-07T05:00:03;17.0;;;9.9;;
63690;SDS011;49837;57.280;27.070;2022-12-07T05:01:03;12.8;;;7.4;;
63690;SDS011;49837;57.280;27.070;2022-12-07T05:02:04;15.5;;;8.6;;
63690;SDS011;49837;57.280;27.070;2022-12-07T05:03:04;9.6;;;5.4;;
63690;SDS011;49837;57.280;27.070;2022-12-07T05:04:04;9.0;;;5.3;;
63690;SDS011;49837;57.280;27.070;2022-12-07T05:05:05;12.2;;;6.2;;
63690;SDS011;49837;57.280;27.070;2022-12-07T05:06:06;11.4;;;5.9;;
63690;SDS011;49837;57.280;27.070;2022-12-07T05:07:09;9.4;;;5.5;;
63690;SDS011;49837;57.280;27.070;2022-12-07T05:08:09;13.0;;;7.2;;
63690;SDS011;49837;57.280;27.070;2022-12-07T05:09:10;7.3;;;4.2;;
63690;SDS011;49837;57.280;27.070;2022-12-07T05:10:10;7.4;;;4.0;;
63690;SDS011;49837;57.280;27.070;2022-12-07T05:11:11;5.9;;;4.1;;
63690;SDS011;49837;57.280;27.070;2022-12-07T05:12:11;9.0;;;5.4;;
63690;SDS011;49837;57.280;27.070;2022-12-07T05:13:11;10.2;;;5.8;;
63690;SDS011;49837;57.280;27.070;2022-12-07T05:14:13;7.9;;;5.1;;
63690;SDS011;49837;57.280;27.070;2022-12-07T05:15:15;8.9;;;5.3;;
63690;SDS011;49837;57.280;27.070;2022-12-07T05:16:15;7.2;;;4.5;;
63690;SDS011;49837;57.280;27.070;2022-12-07T05:17:16;5.6;;;3.7;;
63690;SDS011;49837;57.280;27.070;2022-12-07T05:18:16;4.5;;;3.0;;
63690;SDS011;49837;57.280;27.070;2022-12-07T05:19:17;6.4;;;4.0;;
63690;SDS011;49837;57.280;27.070;2022-12-07T05:20:17;5.8;;;3.9;;
63690;SDS011;49837;57.280;27.070;2022-12-07T05:21:17;6.6;;;4.5;;
63690;SDS011;49837;57.280;27.070;2022-12-07T05:22:18;7.0;;;4.1;;
63690;SDS011;49837;57.280;27.070;2022-12-07T05:23:18;8.0;;;5.1;;
63690;SDS011;49837;57.280;27.070;2022-12-07T05:24:19;7.7;;;4.7;;
63690;SDS011;49837;57.280;27.070;2022-12-07T05:25:19;14.0;;;7.1;;
63690;SDS011;49837;57.280;27.070;2022-12-07T05:26:19;14.7;;;7.9;;
63690;SDS011;49837;57.280;27.070;2022-12-07T05:27:20;8.7;;;5.3;;
63690;SDS011;49837;57.280;27.070;2022-12-07T05:28:20;7.0;;;4.3;;
63690;SDS011;49837;57.280;27.070;2022-12-07T05:29:21;5.8;;;3.7;;
63690;SDS011;49837;57.280;27.070;2022-12-07T05:30:21;5.5;;;3.8;;
63690;SDS011;49837;57.280;27.070;2022-12-07T05:31:22;6.1;;;4.8;;
63690;SDS011;49837;57.280;27.070;2022-12-07T05:32:22;6.2;;;4.5;;
63690;SDS011;49837;57.280;27.070;2022-12-07T05:33:23;5.5;;;3.7;;
63690;SDS011;49837;57.280;27.070;2022-12-07T05:34:23;5.7;;;3.8;;
63690;SDS011;49837;57.280;27.070;2022-12-07T05:35:24;5.3;;;3.8;;
63690;SDS011;49837;57.280;27.070;2022-12-07T05:36:24;5.6;;;3.5;;
63690;SDS011;49837;57.280;27.070;2022-12-07T05:37:24;4.4;;;3.2;;
63690;SDS011;49837;57.280;27.070;2022-12-07T05:38:25;4.9;;;3.2;;
63690;SDS011;49837;57.280;27.070;2022-12-07T05:39:25;5.1;;;3.3;;
63690;SDS011;49837;57.280;27.070;2022-12-07T05:40:26;4.3;;;3.3;;
63690;SDS011;49837;57.280;27.070;2022-12-07T05:41:26;4.8;;;3.3;;
63690;SDS011;49837;57.280;27.070;2022-12-07T05:42:26;4.5;;;3.0;;
63690;SDS011;49837;57.280;27.070;2022-12-07T05:43:27;4.7;;;3.2;;
63690;SDS011;49837;57.280;27.070;2022-12-07T05:44:27;4.7;;;3.3;;
63690;SDS011;49837;57.280;27.070;2022-12-07T05:45:28;5.1;;;3.2;;
63690;SDS011;49837;57.280;27.070;2022-12-07T05:46:28;5.4;;;3.5;;
63690;SDS011;49837;57.280;27.070;2022-12-07T05:47:29;5.9;;;3.7;;
63690;SDS011;49837;57.280;27.070;2022-12-07T05:48:30;5.6;;;3.6;;
63690;SDS011;49837;57.280;27.070;2022-12-07T05:49:30;5.6;;;3.5;;
63690;SDS011;49837;57.280;27.070;2022-12-07T05:50:30;4.8;;;3.4;;
63690;SDS011;49837;57.280;27.070;2022-12-07T05:51:31;5.2;;;3.6;;
63690;SDS011;49837;57.280;27.070;2022-12-07T05:52:31;5.8;;;3.3;;
63690;SDS011;49837;57.280;27.070;2022-12-07T05:53:31;6.1;;;3.9;;
63690;SDS011;49837;57.280;27.070;2022-12-07T05:54:32;6.8;;;3.9;;
63690;SDS011;49837;57.280;27.070;2022-12-07T05:55:32;6.1;;;4.0;;
63690;SDS011;49837;57.280;27.070;2022-12-07T05:56:33;6.4;;;3.9;;
63690;SDS011;49837;57.280;27.070;2022-12-07T05:57:33;6.1;;;3.5;;
63690;SDS011;49837;57.280;27.070;2022-12-07T05:58:33;5.3;;;3.4;;
63690;SDS011;49837;57.280;27.070;2022-12-07T05:59:34;6.0;;;4.0;;
63690;SDS011;49837;57.280;27.070;2022-12-07T06:00:34;5.5;;;3.3;;
63690;SDS011;49837;57.280;27.070;2022-12-07T06:01:35;5.9;;;3.2;;
63690;SDS011;49837;57.280;27.070;2022-12-07T06:02:35;4.5;;;3.2;;
63690;SDS011;49837;57.280;27.070;2022-12-07T06:03:35;7.5;;;4.6;;
63690;SDS011;49837;57.280;27.070;2022-12-07T06:04:37;6.1;;;4.2;;
63690;SDS011;49837;57.280;27.070;2022-12-07T06:05:37;5.5;;;3.5;;
63690;SDS011;49837;57.280;27.070;2022-12-07T06:06:38;5.0;;;3.4;;
63690;SDS011;49837;57.280;27.070;2022-12-07T06:07:38;5.4;;;4.0;;
63690;SDS011;49837;57.280;27.070;2022-12-07T06:08:39;5.8;;;3.9;;
63690;SDS011;49837;57.280;27.070;2022-12-07T06:09:39;5.7;;;4.0;;
63690;SDS011;49837;57.280;27.070;2022-12-07T06:10:39;6.0;;;4.0;;
63690;SDS011;49837;57.280;27.070;2022-12-07T06:11:40;5.9;;;4.0;;
63690;SDS011;49837;57.280;27.070;2022-12-07T06:12:40;5.0;;;3.7;;
63690;SDS011;49837;57.280;27.070;2022-12-07T06:13:41;5.3;;;3.4;;
63690;SDS011;49837;57.280;27.070;2022-12-07T06:14:43;6.5;;;3.9;;
63690;SDS011;49837;57.280;27.070;2022-12-07T06:15:43;5.1;;;3.5;;
63690;SDS011;49837;57.280;27.070;2022-12-07T06:16:44;5.7;;;3.7;;
63690;SDS011;49837;57.280;27.070;2022-12-07T06:17:44;4.9;;;3.4;;
63690;SDS011;49837;57.280;27.070;2022-12-07T06:18:44;7.0;;;4.4;;
63690;SDS011;49837;57.280;27.070;2022-12-07T06:19:45;5.6;;;3.8;;
63690;SDS011;49837;57.280;27.070;2022-12-07T06:20:45;4.9;;;3.3;;
63690;SDS011;49837;57.280;27.070;2022-12-07T06:21:46;5.0;;;3.2;;
63690;SDS011;49837;57.280;27.070;2022-12-07T06:22:46;5.2;;;3.3;;
63690;SDS011;49837;57.280;27.070;2022-12-07T06:23:46;5.8;;;4.0;;
63690;SDS011;49837;57.280;27.070;2022-12-07T06:24:47;5.4;;;3.8;;
63690;SDS011;49837;57.280;27.070;2022-12-07T06:25:47;6.4;;;3.8;;
63690;SDS011;49837;57.280;27.070;2022-12-07T06:26:48;6.7;;;4.2;;
63690;SDS011;49837;57.280;27.070;2022-12-07T06:27:48;6.2;;;4.1;;
63690;SDS011;49837;57.280;27.070;2022-12-07T06:28:49;8.0;;;4.2;;
63690;SDS011;49837;57.280;27.070;2022-12-07T06:29:49;5.1;;;3.1;;
63690;SDS011;49837;57.280;27.070;2022-12-07T06:30:56;5.4;;;3.4;;
63690;SDS011;49837;57.280;27.070;2022-12-07T06:31:52;5.7;;;3.5;;
63690;SDS011;49837;57.280;27.070;2022-12-07T06:32:53;5.6;;;3.9;;
63690;SDS011;49837;57.280;27.070;2022-12-07T06:33:57;6.9;;;4.2;;
63690;SDS011;49837;57.280;27.070;2022-12-07T06:34:53;6.1;;;4.0;;
63690;SDS011;49837;57.280;27.070;2022-12-07T06:35:54;5.5;;;3.2;;
63690;SDS011;49837;57.280;27.070;2022-12-07T06:36:54;6.0;;;4.2;;